Monday, December 18, 2017, 7:48 AM EST
Back to Local

KNEL, Lakehurst Naval Air Station

Location: Lakehurst, NJ, United States Lat: 40.033
Local Time: 7:48 AM EST (12:48 GMT) Lon: -74.317
Time Zone: US/Eastern Elev: 101 ft

Show me the last for .
Show Decoded

2017-12-18 07:00 METAR KNEL 181200Z AUTO 00000KT 7SM BKN032 OVC050 04/03 A3009 RMK AO2 SLP188
                 6//// 7//// T00390028 10044 20028 55005 PNO $ =
2017-12-18 06:00 METAR KNEL 181100Z AUTO 30004KT 7SM OVC031 03/03 A3010 RMK AO2 SLP192 T00330033
                 PNO $ =
2017-12-18 05:00 METAR KNEL 181000Z AUTO 00000KT 6SM BR OVC050 04/03 A3010 RMK AO2 SLP192
                 T00390028 PNO $ =
2017-12-18 04:00 METAR KNEL 180900Z AUTO 00000KT 7SM OVC039 03/03 A3011 RMK AO2 SLP195 6////
                 T00330028 58010 PNO $ =
2017-12-18 03:00 METAR KNEL 180800Z AUTO 06004KT 8SM OVC040 04/03 A3012 RMK AO2 SLP197 T00390028
                 PNO $ =
2017-12-18 02:00 METAR KNEL 180700Z AUTO VRB04KT 8SM BKN039 OVC065 04/02 A3014 RMK AO2 SLP203
                 T00390022 PNO $ =
2017-12-18 01:00 METAR KNEL 180600Z AUTO 07004KT 8SM OVC065 03/02 A3014 RMK AO2 SLP203 6////
                 T00280017 10028 20000 58024 PNO $ =
2017-12-18 00:00 METAR KNEL 180500Z AUTO 06004KT 8SM OVC085 02/01 A3015 RMK AO2 SLP207 T00220006
                 400220022 FZRANO PNO $ =
2017-12-17 23:00 METAR KNEL 180400Z AUTO 00000KT 8SM FEW014 OVC090 02/01 A3018 RMK AO2 SLP217
                 T00170006 FZRANO PNO $ =
2017-12-17 22:00 METAR KNEL 180300Z AUTO 00000KT 8SM OVC100 01/00 A3019 RMK AO2 SLP224 6////
                 T00110000 58002 FZRANO PNO $ =
2017-12-17 21:00 METAR KNEL 180200Z AUTO 00000KT 9SM CLR 01/M01 A3022 RMK AO2 SLP233 T00061006
                 FZRANO PNO $ =
2017-12-17 20:00 METAR KNEL 180100Z AUTO 00000KT 10SM CLR 01/M01 A3022 RMK AO2 SLP232 T00061011
                 FZRANO PNO $ =
2017-12-17 19:00 METAR KNEL 180000Z AUTO 00000KT 10SM CLR 02/M01 A3024 RMK AO2 SLP238 6////
                 T00171006 10056 20017 53003 FZRANO PNO $ =
2017-12-17 18:00 METAR KNEL 172300Z AUTO 00000KT 10SM CLR 03/00 A3022 RMK AO2 SLP234 T00280000
                 PNO $ =
2017-12-17 17:00 METAR KNEL 172200Z AUTO 05004KT 10SM CLR 03/00 A3022 RMK AO2 SLP232 T00280000
                 PNO $ =
2017-12-17 16:00 METAR KNEL 172100Z AUTO 09005KT 10SM CLR 03/00 A3022 RMK AO2 SLP232 6////
                 T00330000 55008 PNO $ =
2017-12-17 15:00 METAR KNEL 172000Z AUTO 12006KT 10SM CLR 05/00 A3021 RMK AO2 SLP231 T00500000
                 PNO $ =
2017-12-17 14:00 METAR KNEL 171900Z AUTO 07006KT 10SM CLR 05/M01 A3020 RMK AO2 SLP227 T00501006
                 PNO $ =
2017-12-17 13:00 METAR KNEL 171800Z AUTO 05003KT 10SM CLR 05/M01 A3022 RMK AO2 SLP233 6////
                 T00501011 10050 21044 58011 PNO $ =
2017-12-17 12:00 METAR KNEL 171700Z AUTO 10004KT 10SM CLR 04/M01 A3024 RMK AO2 SLP238 T00441011
                 PNO $ =
2017-12-17 11:00 METAR KNEL 171600Z AUTO 06006KT 10SM CLR 04/M02 A3027 RMK AO2 SLP249 T00391017
                 PNO $ =
2017-12-17 10:00 METAR KNEL 171500Z AUTO 07005KT 10SM CLR 02/M03 A3027 RMK AO2 SLP251 6////
                 T00221028 51011 FZRANO PNO $ =
2017-12-17 09:00 METAR KNEL 171400Z AUTO 00000KT 10SM OVC055 01/M03 A3027 RMK AO2 SLP250
                 T00111033 FZRANO PNO $ =
2017-12-17 08:00 METAR KNEL 171300Z AUTO 00000KT 10SM BKN055 M02/M03 A3026 RMK AO2 SLP247
                 T10171033 FZRANO PNO $ =

Support USWX by starting your Amazon purchase here.